Latest Weather Observations for Swanbourne

IDW60901

Issued at 6:21 am WST Friday 19 August 2022 (issued every 10 minutes, with the page automatically refreshed every 10 minutes)

About weather observations | Map of Perth area stations | Latest observations for Perth area | Other Formats
Station Details ID: 009215 Name: SWANBOURNE Lat: -31.96 Lon: 115.76 Height: 40.96 m
Data from the previous 72 hours. | See also: Recent months at Swanbourne
Date/Time
WST
Temp
°C
App
Temp
°C
Dew
Point
°C
Rel
Hum
%
Delta-T
°C
Wind Press
QNH
hPa
Press
MSL
hPa
Rain since
9am
mm
Dir  Spd
km/h
Gust
km/h
Spd
kts
Gust
kts
19/06:00am 11.7 10.3 9.4 86 1.2 E 7 9 4 5 - - 0.0
19/05:30am 11.8 11.3 9.2 84 1.3 E 2 4 1 2 - - 0.0
19/05:00am 11.7 10.2 9.1 84 1.3 ENE 7 9 4 5 - - 0.0
19/04:30am 12.3 12.0 8.8 79 1.7 CALM 0 0 0 0 - - 0.0
19/04:00am 11.7 10.8 9.1 84 1.3 ESE 4 7 2 4 - - 0.0
19/03:30am 11.5 10.6 9.1 85 1.2 ESE 4 6 2 3 - - 0.0
19/03:00am 11.6 10.3 9.2 85 1.2 E 6 7 3 4 - - 0.0
19/02:30am 11.7 10.1 8.9 83 1.4 E 7 9 4 5 - - 0.0
19/02:00am 11.8 10.3 9.2 84 1.3 E 7 7 4 4 - - 0.0
19/01:30am 12.2 10.7 9.0 81 1.6 E 7 9 4 5 - - 0.0
19/01:00am 14.8 12.9 7.6 62 3.6 W 7 11 4 6 - - 0.0
19/12:30am 14.9 13.0 7.5 61 3.7 W 7 15 4 8 - - 0.0
19/12:00am 14.8 12.9 7.6 62 3.6 W 7 11 4 6 - - 0.0
 
Date/Time
WST
Temp
°C
App
Temp
°C
Dew
Point
°C
Rel
Hum
%
Delta-T
°C
Wind Press
QNH
hPa
Press
MSL
hPa
Rain since
9am
mm
Dir  Spd
km/h
Gust
km/h
Spd
kts
Gust
kts
18/11:30pm 15.5 12.3 7.0 57 4.2 WSW 13 19 7 10 - - 0.0
18/11:00pm 15.3 13.3 8.5 64 3.4 WSW 9 17 5 9 - - 0.0
18/10:30pm 15.3 12.5 7.1 58 4.0 W 11 15 6 8 - - 0.0
18/10:00pm 15.5 13.0 8.3 62 3.6 W 11 17 6 9 - - 0.0
18/09:30pm 15.4 13.3 8.2 62 3.6 WNW 9 13 5 7 - - 0.0
18/09:00pm 15.1 12.9 7.9 62 3.6 WNW 9 15 5 8 - - 0.0
18/08:30pm 15.0 12.5 8.3 64 3.4 W 11 15 6 8 - - 0.0
18/08:00pm 14.5 12.2 7.5 63 3.5 W 9 13 5 7 - - 0.0
18/07:30pm 14.3 12.9 9.5 73 2.5 NW 7 11 4 6 - - 0.0
18/07:00pm 14.3 12.5 9.3 72 2.6 NW 9 15 5 8 - - 0.0
18/06:30pm 14.3 12.4 9.1 71 2.7 NW 9 15 5 8 - - 0.0
18/06:00pm 14.8 13.3 9.0 68 3.0 NW 7 11 4 6 - - 0.0
18/05:30pm 15.3 13.8 9.0 66 3.2 NW 7 9 4 5 - - 0.0
18/05:00pm 15.1 13.5 8.8 66 3.2 NW 7 9 4 5 - - 0.0
18/04:30pm 15.4 13.7 8.2 62 3.6 WNW 7 11 4 6 - - 0.0
18/04:00pm 16.0 13.8 8.0 59 4.0 NW 9 13 5 7 - - 0.0
18/03:30pm 16.1 13.6 8.1 59 4.0 WNW 11 17 6 9 - - 0.0
18/03:00pm 16.3 13.4 8.3 59 4.1 NW 13 17 7 9 - - 0.0
18/02:30pm 15.3 13.2 8.1 62 3.6 NW 9 15 5 8 - - 0.0
18/02:00pm 15.7 13.5 8.0 60 3.9 NW 9 15 5 8 - - 0.0
18/01:30pm 15.5 13.2 7.5 59 4.0 NW 9 13 5 7 - - 0.0
18/01:00pm 15.8 13.5 7.3 57 4.2 NNW 9 13 5 7 - - 0.0
18/12:30pm 16.0 14.0 8.5 61 3.8 WNW 9 11 5 6 - - 0.0
18/12:00pm 15.6 13.2 7.1 57 4.2 NW 9 13 5 7 - - 0.0
18/11:30am 15.7 13.8 6.7 55 4.4 NE 6 9 3 5 - - 0.0
18/11:00am 15.3 13.3 6.3 55 4.4 NE 6 11 3 6 - - 0.0
18/10:30am 13.9 11.3 6.3 60 3.6 NNE 9 13 5 7 - - 0.0
18/10:00am 13.6 12.2 8.9 73 2.4 ENE 6 9 3 5 - - 0.0
18/09:30am 11.5 9.6 7.6 77 1.9 E 7 11 4 6 - - 0.0
18/09:00am 10.3 8.7 7.9 85 1.2 ENE 6 9 3 5 - - 11.2
18/08:30am 8.7 6.8 7.6 93 0.5 ENE 7 11 4 6 - - 11.2
18/08:00am 7.4 5.0 7.1 98 0.1 ENE 9 11 5 6 - - 11.2
18/07:30am 5.9 3.2 5.8 99 0.0 ENE 9 11 5 6 - - 11.2
18/07:00am 5.3 2.5 5.2 99 0.0 ENE 9 13 5 7 - - 11.2
18/06:30am 5.3 2.1 5.2 99 0.0 ENE 11 15 6 8 - - 11.2
18/06:00am 5.5 2.4 5.4 99 0.0 ENE 11 15 6 8 - - 11.2
18/05:30am 5.7 2.2 5.6 99 0.0 ENE 13 15 7 8 - - 11.2
18/05:00am 5.8 2.7 5.7 99 0.0 ENE 11 13 6 7 - - 11.0
18/04:30am 6.0 3.0 5.9 99 0.0 ENE 11 13 6 7 - - 11.0
18/04:00am 6.1 3.1 5.8 98 0.1 ENE 11 13 6 7 - - 11.0
18/03:30am 6.3 3.3 6.0 98 0.1 ENE 11 11 6 6 - - 11.0
18/03:00am 6.7 3.8 6.4 98 0.1 ENE 11 13 6 7 - - 11.0
18/02:30am 7.3 4.9 6.9 97 0.2 ENE 9 13 5 7 - - 11.0
18/02:00am 7.5 5.1 6.8 95 0.3 ENE 9 9 5 5 - - 11.0
18/01:30am 8.2 6.4 7.3 94 0.4 E 6 7 3 4 - - 11.0
18/01:00am 8.1 6.3 7.3 95 0.4 E 6 7 3 4 - - 11.0
18/12:30am 8.1 6.1 7.2 94 0.4 E 7 7 4 4 - - 11.0
18/12:00am 8.1 6.1 7.3 95 0.4 E 7 7 4 4 - - 11.0
 
Date/Time
WST
Temp
°C
App
Temp
°C
Dew
Point
°C
Rel
Hum
%
Delta-T
°C
Wind Press
QNH
hPa
Press
MSL
hPa
Rain since
9am
mm
Dir  Spd
km/h
Gust
km/h
Spd
kts
Gust
kts
17/11:30pm 8.3 6.6 7.5 95 0.4 E 6 6 3 3 - - 11.0
17/11:00pm 8.4 6.6 7.3 93 0.5 ESE 6 6 3 3 - - 11.0
17/10:30pm 8.4 6.7 7.5 94 0.4 SE 6 7 3 4 - - 10.8
17/10:00pm 8.5 6.6 7.6 94 0.4 SE 7 9 4 5 - - 10.8
17/09:30pm 8.6 6.7 7.7 94 0.4 SE 7 9 4 5 - - 10.8
17/09:00pm 8.4 6.2 7.8 96 0.3 SSE 9 11 5 6 - - 10.8
17/08:30pm 8.4 6.5 7.5 94 0.4 ESE 7 11 4 6 - - 10.8
17/08:00pm 9.0 7.1 7.6 91 0.7 SSE 7 13 4 7 - - 10.8
17/07:30pm 9.2 6.7 8.1 93 0.5 S 11 19 6 10 - - 10.8
17/07:00pm 9.4 7.0 8.6 95 0.4 SSE 11 19 6 10 - - 10.8
17/06:30pm 9.4 6.7 8.8 96 0.3 SSE 13 20 7 11 - - 10.8
17/06:00pm 9.8 6.0 9.0 95 0.4 SSE 19 28 10 15 - - 10.6
17/05:30pm 10.7 8.2 9.6 93 0.6 SSE 13 24 7 13 - - 9.2
17/05:09pm 11.1 8.6 9.7 91 0.7 NNE 13 39 7 21 - - 8.6
17/05:00pm 11.7 10.9 10.9 95 0.4 ENE 6 9 3 5 - - 8.4
17/04:30pm 11.8 11.7 10.9 94 0.5 E 2 7 1 4 - - 8.4
17/04:00pm 11.5 10.5 10.2 92 0.7 S 6 9 3 5 - - 8.4
17/03:30pm 11.3 10.7 10.4 94 0.5 WSW 4 7 2 4 - - 8.4
17/03:00pm 10.8 8.0 9.9 94 0.5 WNW 15 24 8 13 - - 7.6
17/02:30pm 10.9 8.7 9.2 89 0.8 WSW 11 17 6 9 - - 4.6
17/02:00pm 11.8 7.9 8.8 82 1.5 SW 19 30 10 16 - - 2.2
17/01:52pm 11.7 7.6 8.6 81 1.5 WSW 20 30 11 16 - - 2.2
17/01:30pm 11.9 4.8 9.5 85 1.2 W 37 69 20 37 - - 2.0
17/01:27pm 13.6 7.8 9.5 76 2.1 W 30 69 16 37 - - 0.8
17/01:26pm 13.9 8.3 8.7 71 2.6 W 28 65 15 35 - - 0.6
17/01:00pm 16.2 12.1 7.7 57 4.3 W 19 28 10 15 - - 0.6
17/12:30pm 15.4 12.6 8.6 64 3.5 W 13 20 7 11 - - 0.6
17/12:00pm 14.1 9.4 7.9 66 3.1 WSW 22 37 12 20 - - 0.6
17/11:30am 14.5 8.8 8.2 66 3.2 WSW 28 46 15 25 - - 0.6
17/11:00am 15.7 9.8 7.5 58 4.1 W 28 46 15 25 - - 0.6
17/10:41am 15.9 9.1 7.1 56 4.4 W 32 54 17 29 - - 0.6
17/10:30am 15.8 8.1 7.1 56 4.3 W 37 52 20 28 - - 0.6
17/10:07am 15.1 9.3 7.9 62 3.6 WNW 28 46 15 25 - - 0.6
17/10:00am 14.6 8.9 8.3 66 3.2 WNW 28 43 15 23 - - 0.6
17/09:32am 11.3 5.6 8.3 82 1.5 NW 28 46 15 25 - - 0.6
17/09:30am 11.5 5.6 9.1 85 1.2 NW 30 46 16 25 - - 0.6
17/09:00am 12.4 4.2 9.6 83 1.4 WNW 43 74 23 40 - - 7.0
17/08:56am 14.0 7.5 8.2 68 2.9 WNW 32 74 17 40 - - 6.8
17/08:55am 14.7 9.0 8.2 65 3.3 WNW 28 59 15 32 - - 6.8
17/08:30am 13.2 7.6 7.0 66 3.0 WSW 26 39 14 21 - - 6.8
17/08:09am 13.4 6.0 8.5 72 2.5 W 37 57 20 31 - - 6.8
17/08:00am 13.2 5.2 7.4 68 2.8 W 39 54 21 29 - - 6.8
17/07:48am 14.2 7.6 7.9 66 3.1 W 32 54 17 29 - - 6.8
17/07:30am 13.0 6.3 7.5 69 2.7 W 32 44 17 24 - - 6.8
17/07:01am 12.8 4.5 7.7 71 2.5 W 41 61 22 33 - - 6.8
17/07:00am 12.9 4.2 7.8 71 2.5 W 43 61 23 33 - - 6.8
17/06:30am 12.8 4.1 8.3 74 2.2 W 44 65 24 35 - - 6.8
17/06:25am 13.6 5.4 8.2 70 2.7 W 41 63 22 34 - - 6.6
17/06:00am 12.1 4.6 8.0 76 2.0 W 37 50 20 27 - - 6.6
17/05:40am 11.5 0.8 10.2 92 0.7 W 57 91 31 49 - - 6.6
17/05:30am 13.2 4.5 10.0 81 1.7 WNW 46 96 25 52 - - 5.8
17/05:29am 13.6 5.5 10.0 79 1.9 WNW 43 95 23 51 - - 5.8
17/05:24am 14.1 6.8 8.9 71 2.6 WNW 37 56 20 30 - - 5.8
17/05:00am 12.4 3.0 7.3 71 2.5 WNW 46 76 25 41 - - 5.8
17/04:43am 12.3 2.3 9.3 82 1.5 W 52 87 28 47 - - 5.6
17/04:34am 12.9 4.4 8.4 74 2.2 W 43 87 23 47 - - 5.4
17/04:33am 13.3 5.1 8.4 72 2.4 W 41 82 22 44 - - 5.4
17/04:30am 13.4 5.9 9.5 77 2.0 W 39 61 21 33 - - 5.4
17/04:22am 14.0 6.0 9.0 72 2.5 W 41 61 22 33 - - 5.2
17/04:00am 13.9 6.3 10.5 80 1.8 W 41 57 22 31 - - 5.2
17/03:30am 13.6 7.6 10.0 79 1.9 WNW 32 54 17 29 - - 5.2
17/03:23am 13.2 7.7 10.7 85 1.3 W 30 50 16 27 - - 5.2
17/03:00am 12.4 6.7 11.3 93 0.6 W 32 46 17 25 - - 5.2
17/02:30am 13.4 5.8 10.4 82 1.6 W 41 63 22 34 - - 4.0
17/02:24am 13.8 7.0 10.6 81 1.7 W 37 63 20 34 - - 4.0
17/02:15am 15.1 8.2 10.3 73 2.5 WNW 37 50 20 27 - - 3.8
17/02:08am 15.8 8.5 10.1 69 3.0 WNW 39 57 21 31 - - 3.8
17/02:00am 15.7 7.3 9.1 65 3.4 WNW 43 57 23 31 - - 3.8
17/01:30am 15.3 7.3 9.0 66 3.2 WNW 41 54 22 29 - - 3.8
17/01:00am 13.9 7.0 10.3 79 1.9 WNW 37 56 20 30 - - 3.8
17/12:55am 13.7 6.1 10.5 81 1.7 WNW 41 67 22 36 - - 3.8
17/12:46am 14.5 5.6 10.5 77 2.1 WNW 48 78 26 42 - - 3.8
17/12:45am 15.1 6.1 10.3 73 2.5 WNW 48 78 26 42 - - 3.8
17/12:39am 15.3 7.5 9.9 70 2.8 WNW 41 63 22 34 - - 3.8
17/12:30am 15.3 7.9 9.9 70 2.8 WNW 39 54 21 29 - - 3.8
17/12:05am 14.0 9.1 11.2 83 1.5 NW 28 46 15 25 - - 3.8
17/12:00am 14.9 10.6 10.7 76 2.2 NW 24 33 13 18 - - 3.0
 
Date/Time
WST
Temp
°C
App
Temp
°C
Dew
Point
°C
Rel
Hum
%
Delta-T
°C
Wind Press
QNH
hPa
Press
MSL
hPa
Rain since
9am
mm
Dir  Spd
km/h
Gust
km/h
Spd
kts
Gust
kts
16/11:30pm 14.2 8.2 10.0 76 2.2 WNW 32 48 17 26 - - 3.0
16/11:00pm 14.8 5.8 10.4 75 2.3 NW 48 70 26 38 - - 2.8
16/10:30pm 15.8 8.0 8.1 60 3.9 NW 39 59 21 32 - - 2.8
16/10:05pm 16.6 10.4 10.0 65 3.5 NW 33 52 18 28 - - 2.6
16/10:00pm 16.5 9.8 9.7 64 3.6 NW 35 52 19 28 - - 2.6
16/09:36pm 15.6 10.5 10.6 72 2.6 WNW 28 46 15 25 - - 2.6
16/09:30pm 15.1 9.7 10.9 76 2.2 WNW 30 43 16 23 - - 2.6
16/09:18pm 14.6 7.7 10.2 75 2.3 WNW 37 56 20 30 - - 2.6
16/09:00pm 16.7 10.4 9.6 63 3.7 NW 33 50 18 27 - - 2.6
16/08:30pm 16.6 10.1 8.1 57 4.3 NW 32 52 17 28 - - 2.6
16/08:00pm 15.8 9.4 9.5 66 3.3 WNW 33 52 18 28 - - 2.6
16/07:37pm 16.6 10.4 9.3 62 3.8 NW 32 50 17 27 - - 2.6
16/07:30pm 16.6 9.7 8.8 60 4.0 NW 35 48 19 26 - - 2.6
16/07:18pm 16.4 9.7 8.1 58 4.2 NW 33 54 18 29 - - 2.6
16/07:00pm 16.5 10.0 10.4 67 3.2 NW 35 48 19 26 - - 2.6
16/06:30pm 16.6 9.6 8.6 59 4.1 WNW 35 48 19 26 - - 2.6
16/06:00pm 16.7 10.1 8.4 58 4.2 WNW 33 48 18 26 - - 2.6
16/05:30pm 17.1 9.7 8.3 56 4.5 WNW 37 50 20 27 - - 2.6
16/05:00pm 17.4 9.7 7.2 51 5.1 WNW 37 50 20 27 - - 2.6
16/04:47pm 17.5 10.7 9.2 58 4.3 WNW 35 54 19 29 - - 2.6
16/04:30pm 17.7 10.4 8.6 55 4.7 WNW 37 50 20 27 - - 2.6
16/04:00pm 18.0 11.2 9.4 57 4.5 WNW 35 57 19 31 - - 2.6
16/03:55pm 18.0 11.3 9.6 58 4.4 WNW 35 57 19 31 - - 2.6
16/03:30pm 18.4 11.9 10.3 59 4.3 WNW 35 52 19 28 - - 2.6
16/03:00pm 17.8 13.3 11.4 66 3.5 WNW 26 39 14 21 - - 2.6
16/02:30pm 18.4 13.2 11.7 65 3.7 WNW 30 46 16 25 - - 2.6
16/02:00pm 18.5 13.5 12.3 67 3.4 WNW 30 44 16 24 - - 2.6
16/01:38pm 16.6 12.5 13.9 84 1.5 W 28 48 15 26 - - 2.6
16/01:30pm 17.3 11.5 12.6 74 2.6 W 35 48 19 26 - - 2.4
16/01:00pm 18.7 13.9 12.9 69 3.3 W 30 43 16 23 - - 2.4
16/12:30pm 17.2 12.3 12.7 75 2.5 WNW 30 41 16 22 - - 2.4
16/12:00pm 15.7 12.1 13.2 85 1.4 WNW 24 37 13 20 - - 2.4
16/11:30am 15.6 10.7 12.4 81 1.8 WNW 30 44 16 24 - - 2.2
16/11:00am 15.1 10.6 13.8 92 0.7 WNW 30 52 16 28 - - 2.2
16/10:39am 16.1 11.9 13.4 84 1.5 WNW 28 65 15 35 - - 0.8
16/10:30am 16.4 13.4 13.7 84 1.5 WNW 22 32 12 17 - - 0.8
16/10:00am 15.1 12.6 13.5 90 0.9 WNW 19 26 10 14 - - 0.8
16/09:30am 14.9 10.2 14.3 96 0.3 WNW 32 43 17 23 - - 0.6
16/09:00am 15.4 10.7 14.4 94 0.6 W 32 44 17 24 - - 15.8
16/08:30am 15.9 11.5 15.1 95 0.5 W 32 46 17 25 - - 15.4
16/08:00am 18.1 15.0 14.4 79 2.1 WNW 24 32 13 17 - - 13.6
16/07:30am 18.1 14.9 14.2 78 2.2 WNW 24 35 13 19 - - 13.6
16/07:00am 18.0 14.3 13.9 77 2.3 WNW 26 39 14 21 - - 13.6
16/06:30am 18.0 14.6 14.7 81 1.9 WNW 26 39 14 21 - - 13.6

Latest Capital City Observations: Canberra | Sydney | Melbourne | Brisbane | Adelaide | Perth | Hobart | Darwin

Other formats

Comma delimited format used in spreadsheet applications
http://www.bom.gov.au/fwo/IDW60901/IDW60901.94614.axf

JavaScript Object Notation format (JSON) in row-major order
http://www.bom.gov.au/fwo/IDW60901/IDW60901.94614.json

Data quality

Most of these data are generated automatically and are frequently updated. Quality checks on data are not normally performed. It is possible for incorrect values to appear. Refer to information at About Latest Weather Observations and please check the disclaimer before using these data.